Terminal Aerodrome Forecast
Issued by NWS Newport/Morehead City, NC

Home | Current Version | Previous Version | Text Only | Print | Product List | Glossary Off
Versions: 1 2 3 4 5 6 7 8 9 10 11 12 13

365
FTUS42 KMHX 051740
TAFEWN
TAF
KEWN 051740Z 0518/0618 33015G20KT P6SM BKN040
     FM052300 35005KT P6SM SKC
     FM061300 01005KT P6SM SCT250=

USA.gov is the U.S. government's official web portal to all federal, state and local government web resources and services.